sensor_id;sensor_type;location;lat;lon;timestamp;pressure;altitude;pressure_sealevel;temperature;humidity
28606;BME280;46498;49.968;7.754;2023-05-21T00:04:43;-18698.00;;;13.21;100.00
28606;BME280;46498;49.968;7.754;2023-05-21T00:09:44;-18695.00;;;13.11;100.00
28606;BME280;46498;49.968;7.754;2023-05-21T00:14:45;-18696.00;;;13.13;100.00
28606;BME280;46498;49.968;7.754;2023-05-21T00:19:46;-18696.00;;;13.12;100.00
28606;BME280;46498;49.968;7.754;2023-05-21T00:24:47;-18701.00;;;13.27;100.00
28606;BME280;46498;49.968;7.754;2023-05-21T00:29:48;-18696.00;;;13.13;100.00
28606;BME280;46498;49.968;7.754;2023-05-21T00:34:49;-18699.00;;;13.21;100.00
28606;BME280;46498;49.968;7.754;2023-05-21T00:39:50;-18698.00;;;13.20;100.00
28606;BME280;46498;49.968;7.754;2023-05-21T00:44:52;-18698.00;;;13.18;100.00
28606;BME280;46498;49.968;7.754;2023-05-21T00:49:54;-18697.00;;;13.18;100.00
28606;BME280;46498;49.968;7.754;2023-05-21T00:54:55;-18698.00;;;13.19;100.00
28606;BME280;46498;49.968;7.754;2023-05-21T00:59:56;-18697.00;;;13.15;100.00
28606;BME280;46498;49.968;7.754;2023-05-21T01:04:57;-18691.00;;;12.99;100.00
28606;BME280;46498;49.968;7.754;2023-05-21T01:10:04;-18692.00;;;13.00;100.00
28606;BME280;46498;49.968;7.754;2023-05-21T01:15:07;-18688.00;;;12.87;100.00
28606;BME280;46498;49.968;7.754;2023-05-21T01:20:09;-18684.00;;;12.75;100.00
28606;BME280;46498;49.968;7.754;2023-05-21T01:25:10;-18686.00;;;12.81;100.00
28606;BME280;46498;49.968;7.754;2023-05-21T01:30:12;-18686.00;;;12.83;100.00
28606;BME280;46498;49.968;7.754;2023-05-21T01:35:21;-18686.00;;;12.82;100.00
28606;BME280;46498;49.968;7.754;2023-05-21T01:40:34;-18686.00;;;12.82;100.00
28606;BME280;46498;49.968;7.754;2023-05-21T01:45:39;-18684.00;;;12.74;100.00
28606;BME280;46498;49.968;7.754;2023-05-21T01:50:42;-18683.00;;;12.72;100.00
28606;BME280;46498;49.968;7.754;2023-05-21T01:55:43;-18679.00;;;12.60;100.00
28606;BME280;46498;49.968;7.754;2023-05-21T02:00:45;-18674.00;;;12.45;100.00
28606;BME280;46498;49.968;7.754;2023-05-21T02:05:46;-18675.00;;;12.47;100.00
28606;BME280;46498;49.968;7.754;2023-05-21T02:10:48;-18675.00;;;12.46;100.00
28606;BME280;46498;49.968;7.754;2023-05-21T02:15:54;-18673.00;;;12.41;100.00
28606;BME280;46498;49.968;7.754;2023-05-21T02:20:56;-18671.00;;;12.35;100.00
28606;BME280;46498;49.968;7.754;2023-05-21T02:25:57;-18672.00;;;12.39;100.00
28606;BME280;46498;49.968;7.754;2023-05-21T02:30:58;-18669.00;;;12.28;100.00
28606;BME280;46498;49.968;7.754;2023-05-21T02:35:59;-18668.00;;;12.24;100.00
28606;BME280;46498;49.968;7.754;2023-05-21T02:41:00;-18668.00;;;12.26;100.00
28606;BME280;46498;49.968;7.754;2023-05-21T02:46:01;-18668.00;;;12.25;100.00
28606;BME280;46498;49.968;7.754;2023-05-21T02:51:03;-18666.00;;;12.19;100.00
28606;BME280;46498;49.968;7.754;2023-05-21T02:56:04;-18668.00;;;12.26;100.00
28606;BME280;46498;49.968;7.754;2023-05-21T03:01:05;-18666.00;;;12.19;100.00
28606;BME280;46498;49.968;7.754;2023-05-21T03:06:06;-18666.00;;;12.19;100.00
28606;BME280;46498;49.968;7.754;2023-05-21T03:11:09;-18666.00;;;12.17;100.00
28606;BME280;46498;49.968;7.754;2023-05-21T03:16:10;-18664.00;;;12.13;100.00
28606;BME280;46498;49.968;7.754;2023-05-21T03:21:12;-18663.00;;;12.10;100.00
28606;BME280;46498;49.968;7.754;2023-05-21T03:26:15;-18664.00;;;12.14;100.00
28606;BME280;46498;49.968;7.754;2023-05-21T03:31:16;-18668.00;;;12.26;100.00
28606;BME280;46498;49.968;7.754;2023-05-21T03:36:22;-18669.00;;;12.27;100.00
28606;BME280;46498;49.968;7.754;2023-05-21T03:41:23;-18671.00;;;12.36;100.00
28606;BME280;46498;49.968;7.754;2023-05-21T03:46:28;-18672.00;;;12.36;100.00
28606;BME280;46498;49.968;7.754;2023-05-21T03:51:38;-18675.00;;;12.46;100.00
28606;BME280;46498;49.968;7.754;2023-05-21T03:56:41;-18679.00;;;12.59;100.00
28606;BME280;46498;49.968;7.754;2023-05-21T04:01:42;-18677.00;;;12.53;100.00
28606;BME280;46498;49.968;7.754;2023-05-21T04:06:45;-18679.00;;;12.60;100.00
28606;BME280;46498;49.968;7.754;2023-05-21T04:11:46;-18677.00;;;12.53;100.00
28606;BME280;46498;49.968;7.754;2023-05-21T04:16:47;-18674.00;;;12.44;100.00
28606;BME280;46498;49.968;7.754;2023-05-21T04:21:48;-18675.00;;;12.46;100.00
28606;BME280;46498;49.968;7.754;2023-05-21T04:26:49;-18675.00;;;12.47;100.00
28606;BME280;46498;49.968;7.754;2023-05-21T04:31:51;-18671.00;;;12.33;100.00
28606;BME280;46498;49.968;7.754;2023-05-21T04:36:52;-18675.00;;;12.47;100.00
28606;BME280;46498;49.968;7.754;2023-05-21T04:41:53;-18675.00;;;12.46;100.00
28606;BME280;46498;49.968;7.754;2023-05-21T04:46:56;-18674.00;;;12.43;100.00
28606;BME280;46498;49.968;7.754;2023-05-21T04:51:58;-18676.00;;;12.50;100.00
28606;BME280;46498;49.968;7.754;2023-05-21T04:56:59;-18681.00;;;12.65;100.00
28606;BME280;46498;49.968;7.754;2023-05-21T05:02:00;-18684.00;;;12.74;100.00
28606;BME280;46498;49.968;7.754;2023-05-21T05:07:01;-18685.00;;;12.78;100.00
28606;BME280;46498;49.968;7.754;2023-05-21T05:12:02;-18686.00;;;12.82;100.00
28606;BME280;46498;49.968;7.754;2023-05-21T05:17:04;-18690.00;;;12.93;100.00
28606;BME280;46498;49.968;7.754;2023-05-21T05:22:06;-18692.00;;;13.02;100.00
28606;BME280;46498;49.968;7.754;2023-05-21T05:27:07;-18693.00;;;13.04;100.00
28606;BME280;46498;49.968;7.754;2023-05-21T05:32:08;-18691.00;;;12.98;100.00
28606;BME280;46498;49.968;7.754;2023-05-21T05:37:10;-18698.00;;;13.19;100.00
28606;BME280;46498;49.968;7.754;2023-05-21T05:42:11;-18698.00;;;13.20;100.00
28606;BME280;46498;49.968;7.754;2023-05-21T05:47:11;-18699.00;;;13.21;100.00
28606;BME280;46498;49.968;7.754;2023-05-21T05:52:13;-18700.00;;;13.27;100.00
28606;BME280;46498;49.968;7.754;2023-05-21T05:57:14;-18704.00;;;13.39;100.00
28606;BME280;46498;49.968;7.754;2023-05-21T06:02:15;-18705.00;;;13.41;100.00
28606;BME280;46498;49.968;7.754;2023-05-21T06:07:17;-18711.00;;;13.59;100.00
28606;BME280;46498;49.968;7.754;2023-05-21T06:12:18;-18708.00;;;13.51;100.00
28606;BME280;46498;49.968;7.754;2023-05-21T06:17:19;-18713.00;;;13.66;100.00
28606;BME280;46498;49.968;7.754;2023-05-21T06:22:20;-18714.00;;;13.69;100.00
28606;BME280;46498;49.968;7.754;2023-05-21T06:27:21;-18719.00;;;13.86;100.00
28606;BME280;46498;49.968;7.754;2023-05-21T06:32:23;-18722.00;;;13.96;100.00
28606;BME280;46498;49.968;7.754;2023-05-21T06:37:25;-18723.00;;;13.99;100.00
28606;BME280;46498;49.968;7.754;2023-05-21T06:42:27;-18723.00;;;13.99;100.00
28606;BME280;46498;49.968;7.754;2023-05-21T06:54:17;-18730.00;;;14.19;100.00
28606;BME280;46498;49.968;7.754;2023-05-21T06:59:18;-18739.00;;;14.49;100.00
28606;BME280;46498;49.968;7.754;2023-05-21T07:04:19;-18749.00;;;14.79;100.00
28606;BME280;46498;49.968;7.754;2023-05-21T07:09:20;-18757.00;;;15.05;100.00
28606;BME280;46498;49.968;7.754;2023-05-21T07:14:23;-18765.00;;;15.29;100.00
28606;BME280;46498;49.968;7.754;2023-05-21T07:19:25;-18781.00;;;15.81;100.00
28606;BME280;46498;49.968;7.754;2023-05-21T07:24:27;-18789.00;;;16.04;100.00
28606;BME280;46498;49.968;7.754;2023-05-21T07:29:28;-18795.00;;;16.25;100.00
28606;BME280;46498;49.968;7.754;2023-05-21T07:34:29;-18805.00;;;16.55;100.00
28606;BME280;46498;49.968;7.754;2023-05-21T07:39:30;-18818.00;;;16.95;100.00
28606;BME280;46498;49.968;7.754;2023-05-21T07:44:31;-18821.00;;;17.07;99.47
28606;BME280;46498;49.968;7.754;2023-05-21T07:49:32;-18830.00;;;17.35;97.82
28606;BME280;46498;49.968;7.754;2023-05-21T07:54:33;-18835.00;;;17.49;97.77
28606;BME280;46498;49.968;7.754;2023-05-21T07:59:35;-18845.00;;;17.82;97.13
28606;BME280;46498;49.968;7.754;2023-05-21T08:04:36;-18853.00;;;18.07;95.38
28606;BME280;46498;49.968;7.754;2023-05-21T08:09:41;-18852.00;;;18.02;93.31
28606;BME280;46498;49.968;7.754;2023-05-21T08:14:44;-18859.00;;;18.25;90.74
28606;BME280;46498;49.968;7.754;2023-05-21T08:19:45;-18861.00;;;18.31;91.07
28606;BME280;46498;49.968;7.754;2023-05-21T08:24:46;-18869.00;;;18.56;90.45
28606;BME280;46498;49.968;7.754;2023-05-21T08:29:48;-18872.00;;;18.66;92.15
28606;BME280;46498;49.968;7.754;2023-05-21T08:34:49;-18879.00;;;18.88;88.45
28606;BME280;46498;49.968;7.754;2023-05-21T08:40:01;-18882.00;;;18.98;92.34
28606;BME280;46498;49.968;7.754;2023-05-21T08:45:10;-18897.00;;;19.45;88.18
28606;BME280;46498;49.968;7.754;2023-05-21T08:50:15;-18898.00;;;19.48;88.90
28606;BME280;46498;49.968;7.754;2023-05-21T08:55:20;-18902.00;;;19.60;88.03
28606;BME280;46498;49.968;7.754;2023-05-21T09:00:22;-18909.00;;;19.83;85.83
28606;BME280;46498;49.968;7.754;2023-05-21T09:05:25;-18907.00;;;19.75;84.56
28606;BME280;46498;49.968;7.754;2023-05-21T09:10:33;-18904.00;;;19.66;86.21
28606;BME280;46498;49.968;7.754;2023-05-21T09:15:35;-18898.00;;;19.47;84.72
28606;BME280;46498;49.968;7.754;2023-05-21T09:20:38;-18888.00;;;19.16;84.53
28606;BME280;46498;49.968;7.754;2023-05-21T09:25:39;-18885.00;;;19.07;87.34
28606;BME280;46498;49.968;7.754;2023-05-21T09:30:48;-18882.00;;;18.97;90.60
28606;BME280;46498;49.968;7.754;2023-05-21T09:35:51;-18876.00;;;18.78;90.52
28606;BME280;46498;49.968;7.754;2023-05-21T09:40:54;-18879.00;;;18.89;90.45
28606;BME280;46498;49.968;7.754;2023-05-21T09:45:58;-18879.00;;;18.88;92.70
28606;BME280;46498;49.968;7.754;2023-05-21T09:51:11;-18875.00;;;18.75;90.80
28606;BME280;46498;49.968;7.754;2023-05-21T09:56:13;-18878.00;;;18.84;92.36
28606;BME280;46498;49.968;7.754;2023-05-21T10:01:14;-18883.00;;;19.01;90.08
28606;BME280;46498;49.968;7.754;2023-05-21T10:06:16;-18888.00;;;19.16;89.61
28606;BME280;46498;49.968;7.754;2023-05-21T10:11:21;-18893.00;;;19.33;90.17
28606;BME280;46498;49.968;7.754;2023-05-21T10:16:23;-18894.00;;;19.35;86.31
28606;BME280;46498;49.968;7.754;2023-05-21T10:21:25;-18900.00;;;19.53;87.74
28606;BME280;46498;49.968;7.754;2023-05-21T10:26:27;-18904.00;;;19.66;86.51
28606;BME280;46498;49.968;7.754;2023-05-21T10:31:28;-18924.00;;;20.29;84.63
28606;BME280;46498;49.968;7.754;2023-05-21T10:36:29;-18933.00;;;20.58;81.75
28606;BME280;46498;49.968;7.754;2023-05-21T10:41:41;-18929.00;;;20.46;80.49
28606;BME280;46498;49.968;7.754;2023-05-21T10:47:22;-18950.00;;;21.11;79.83
28606;BME280;46498;49.968;7.754;2023-05-21T11:04:34;-19002.00;;;22.76;68.77
28606;BME280;46498;49.968;7.754;2023-05-21T11:09:39;-18995.00;;;22.55;75.65
28606;BME280;46498;49.968;7.754;2023-05-21T11:14:40;-18998.00;;;22.64;72.44
28606;BME280;46498;49.968;7.754;2023-05-21T11:19:43;-19004.00;;;22.83;69.49
28606;BME280;46498;49.968;7.754;2023-05-21T11:24:47;-19018.00;;;23.27;69.15
28606;BME280;46498;49.968;7.754;2023-05-21T11:29:54;-19032.00;;;23.72;68.50
28606;BME280;46498;49.968;7.754;2023-05-21T11:34:58;-19033.00;;;23.74;64.74
28606;BME280;46498;49.968;7.754;2023-05-21T11:40:16;-19035.00;;;23.81;64.56
28606;BME280;46498;49.968;7.754;2023-05-21T11:45:18;-19039.00;;;23.92;62.64
28606;BME280;46498;49.968;7.754;2023-05-21T11:50:19;-19036.00;;;23.84;58.05
28606;BME280;46498;49.968;7.754;2023-05-21T11:55:22;-19028.00;;;23.59;64.29
28606;BME280;46498;49.968;7.754;2023-05-21T12:00:24;-19009.00;;;22.98;69.66
28606;BME280;46498;49.968;7.754;2023-05-21T12:05:26;-19014.00;;;23.13;62.74
28606;BME280;46498;49.968;7.754;2023-05-21T12:10:26;-18984.00;;;22.18;64.96
28606;BME280;46498;49.968;7.754;2023-05-21T12:15:27;-19002.00;;;22.75;65.28
28606;BME280;46498;49.968;7.754;2023-05-21T12:20:28;-19006.00;;;22.87;69.28
28606;BME280;46498;49.968;7.754;2023-05-21T12:25:30;-19016.00;;;23.18;62.78
28606;BME280;46498;49.968;7.754;2023-05-21T12:30:31;-19019.00;;;23.30;64.30
28606;BME280;46498;49.968;7.754;2023-05-21T12:35:32;-18990.00;;;22.39;60.96
28606;BME280;46498;49.968;7.754;2023-05-21T12:40:35;-18981.00;;;22.10;67.04
28606;BME280;46498;49.968;7.754;2023-05-21T12:45:41;-18986.00;;;22.26;64.85
28606;BME280;46498;49.968;7.754;2023-05-21T12:50:43;-18984.00;;;22.19;63.63
28606;BME280;46498;49.968;7.754;2023-05-21T12:55:43;-18997.00;;;22.61;63.58
28606;BME280;46498;49.968;7.754;2023-05-21T13:00:44;-18991.00;;;22.41;65.33
28606;BME280;46498;49.968;7.754;2023-05-21T13:05:45;-18992.00;;;22.44;62.51
28606;BME280;46498;49.968;7.754;2023-05-21T13:10:49;-18987.00;;;22.29;66.46
28606;BME280;46498;49.968;7.754;2023-05-21T13:15:50;-18982.00;;;22.13;63.78
28606;BME280;46498;49.968;7.754;2023-05-21T13:20:51;-18992.00;;;22.45;62.03
28606;BME280;46498;49.968;7.754;2023-05-21T13:25:52;-18967.00;;;21.65;60.95
28606;BME280;46498;49.968;7.754;2023-05-21T13:30:53;-18971.00;;;21.78;57.32
28606;BME280;46498;49.968;7.754;2023-05-21T13:35:54;-18983.00;;;22.14;60.76
28606;BME280;46498;49.968;7.754;2023-05-21T13:40:55;-18996.00;;;22.58;52.89
28606;BME280;46498;49.968;7.754;2023-05-21T13:45:56;-18999.00;;;22.66;52.23
28606;BME280;46498;49.968;7.754;2023-05-21T13:50:57;-19001.00;;;22.74;50.46
28606;BME280;46498;49.968;7.754;2023-05-21T13:55:58;-19001.00;;;22.74;53.08
28606;BME280;46498;49.968;7.754;2023-05-21T14:01:01;-18997.00;;;22.60;54.77
28606;BME280;46498;49.968;7.754;2023-05-21T14:06:03;-19019.00;;;23.29;53.82
28606;BME280;46498;49.968;7.754;2023-05-21T14:11:04;-19019.00;;;23.30;48.87
28606;BME280;46498;49.968;7.754;2023-05-21T14:16:06;-19003.00;;;22.78;49.03
28606;BME280;46498;49.968;7.754;2023-05-21T14:21:07;-19006.00;;;22.89;50.47
28606;BME280;46498;49.968;7.754;2023-05-21T14:26:08;-19012.00;;;23.07;51.10
28606;BME280;46498;49.968;7.754;2023-05-21T14:31:09;-19003.00;;;22.79;50.05
28606;BME280;46498;49.968;7.754;2023-05-21T14:36:10;-19008.00;;;22.95;52.35
28606;BME280;46498;49.968;7.754;2023-05-21T14:41:10;-18998.00;;;22.63;51.84
28606;BME280;46498;49.968;7.754;2023-05-21T14:46:11;-19006.00;;;22.87;51.69
28606;BME280;46498;49.968;7.754;2023-05-21T14:51:13;-19008.00;;;22.95;47.96
28606;BME280;46498;49.968;7.754;2023-05-21T14:56:14;-19003.00;;;22.78;46.27
28606;BME280;46498;49.968;7.754;2023-05-21T15:01:15;-19003.00;;;22.80;46.52
28606;BME280;46498;49.968;7.754;2023-05-21T15:06:16;-19011.00;;;23.05;47.69
28606;BME280;46498;49.968;7.754;2023-05-21T15:11:17;-19009.00;;;22.98;45.70
28606;BME280;46498;49.968;7.754;2023-05-21T15:16:18;-19015.00;;;23.16;48.04
28606;BME280;46498;49.968;7.754;2023-05-21T15:21:20;-19014.00;;;23.13;48.86
28606;BME280;46498;49.968;7.754;2023-05-21T15:26:21;-19012.00;;;23.07;48.63
28606;BME280;46498;49.968;7.754;2023-05-21T15:31:24;-19015.00;;;23.17;47.06
28606;BME280;46498;49.968;7.754;2023-05-21T15:36:25;-19018.00;;;23.25;47.15
28606;BME280;46498;49.968;7.754;2023-05-21T15:41:26;-19018.00;;;23.27;47.78
28606;BME280;46498;49.968;7.754;2023-05-21T15:46:27;-19017.00;;;23.23;46.30
28606;BME280;46498;49.968;7.754;2023-05-21T15:51:28;-19034.00;;;23.77;47.12
28606;BME280;46498;49.968;7.754;2023-05-21T15:56:29;-19026.00;;;23.51;47.76
28606;BME280;46498;49.968;7.754;2023-05-21T16:01:30;-19041.00;;;24.00;47.14
28606;BME280;46498;49.968;7.754;2023-05-21T16:06:32;-19027.00;;;23.54;45.35
28606;BME280;46498;49.968;7.754;2023-05-21T16:11:34;-19025.00;;;23.49;47.62
28606;BME280;46498;49.968;7.754;2023-05-21T16:16:35;-19031.00;;;23.67;47.01
28606;BME280;46498;49.968;7.754;2023-05-21T16:21:36;-19033.00;;;23.73;48.74
28606;BME280;46498;49.968;7.754;2023-05-21T16:26:37;-19014.00;;;23.13;45.85
28606;BME280;46498;49.968;7.754;2023-05-21T16:31:38;-19014.00;;;23.13;48.99
28606;BME280;46498;49.968;7.754;2023-05-21T16:36:39;-19003.00;;;22.78;46.95
28606;BME280;46498;49.968;7.754;2023-05-21T16:41:40;-18996.00;;;22.58;48.37
28606;BME280;46498;49.968;7.754;2023-05-21T16:46:42;-18991.00;;;22.41;48.05
28606;BME280;46498;49.968;7.754;2023-05-21T16:51:43;-18993.00;;;22.49;48.65
28606;BME280;46498;49.968;7.754;2023-05-21T16:56:44;-18990.00;;;22.37;47.49
28606;BME280;46498;49.968;7.754;2023-05-21T17:01:45;-18991.00;;;22.41;47.78
28606;BME280;46498;49.968;7.754;2023-05-21T17:06:46;-18993.00;;;22.46;46.98
28606;BME280;46498;49.968;7.754;2023-05-21T17:11:47;-18998.00;;;22.65;46.18
28606;BME280;46498;49.968;7.754;2023-05-21T17:16:48;-18998.00;;;22.64;45.56
28606;BME280;46498;49.968;7.754;2023-05-21T17:21:49;-19003.00;;;22.78;48.09
28606;BME280;46498;49.968;7.754;2023-05-21T17:26:51;-18997.00;;;22.61;46.61
28606;BME280;46498;49.968;7.754;2023-05-21T17:31:52;-18996.00;;;22.58;46.98
28606;BME280;46498;49.968;7.754;2023-05-21T17:36:54;-18993.00;;;22.49;47.64
28606;BME280;46498;49.968;7.754;2023-05-21T17:41:55;-18991.00;;;22.40;47.50
28606;BME280;46498;49.968;7.754;2023-05-21T17:46:57;-18992.00;;;22.43;48.51
28606;BME280;46498;49.968;7.754;2023-05-21T17:51:58;-18988.00;;;22.33;49.00
28606;BME280;46498;49.968;7.754;2023-05-21T17:57:00;-18985.00;;;22.21;49.25
28606;BME280;46498;49.968;7.754;2023-05-21T18:02:00;-18985.00;;;22.23;50.17
28606;BME280;46498;49.968;7.754;2023-05-21T18:07:01;-18980.00;;;22.06;51.04
28606;BME280;46498;49.968;7.754;2023-05-21T18:12:03;-18975.00;;;21.90;52.86
28606;BME280;46498;49.968;7.754;2023-05-21T18:17:05;-18969.00;;;21.73;54.33
28606;BME280;46498;49.968;7.754;2023-05-21T18:22:06;-18963.00;;;21.54;55.83
28606;BME280;46498;49.968;7.754;2023-05-21T18:27:07;-18959.00;;;21.40;56.92
28606;BME280;46498;49.968;7.754;2023-05-21T18:32:08;-18952.00;;;21.19;60.17
28606;BME280;46498;49.968;7.754;2023-05-21T18:37:11;-18947.00;;;21.02;63.11
28606;BME280;46498;49.968;7.754;2023-05-21T18:42:12;-18945.00;;;20.95;65.36
28606;BME280;46498;49.968;7.754;2023-05-21T18:47:14;-18939.00;;;20.78;67.74
28606;BME280;46498;49.968;7.754;2023-05-21T18:52:15;-18935.00;;;20.63;70.15
28606;BME280;46498;49.968;7.754;2023-05-21T18:57:17;-18927.00;;;20.38;72.71
28606;BME280;46498;49.968;7.754;2023-05-21T19:02:18;-18923.00;;;20.28;75.01
28606;BME280;46498;49.968;7.754;2023-05-21T19:07:19;-18918.00;;;20.12;76.75
28606;BME280;46498;49.968;7.754;2023-05-21T19:12:20;-18915.00;;;20.02;78.97
28606;BME280;46498;49.968;7.754;2023-05-21T19:17:21;-18907.00;;;19.75;80.84
28606;BME280;46498;49.968;7.754;2023-05-21T19:22:22;-18907.00;;;19.75;81.96
28606;BME280;46498;49.968;7.754;2023-05-21T19:27:24;-18906.00;;;19.73;82.73
28606;BME280;46498;49.968;7.754;2023-05-21T19:32:25;-18901.00;;;19.57;84.07
28606;BME280;46498;49.968;7.754;2023-05-21T19:37:26;-18899.00;;;19.50;84.91
28606;BME280;46498;49.968;7.754;2023-05-21T19:42:27;-18898.00;;;19.48;85.36
28606;BME280;46498;49.968;7.754;2023-05-21T19:47:28;-18895.00;;;19.38;86.10
28606;BME280;46498;49.968;7.754;2023-05-21T19:52:30;-18893.00;;;19.31;86.84
28606;BME280;46498;49.968;7.754;2023-05-21T19:57:31;-18894.00;;;19.35;86.96
28606;BME280;46498;49.968;7.754;2023-05-21T20:02:32;-18895.00;;;19.37;86.52
28606;BME280;46498;49.968;7.754;2023-05-21T20:07:34;-18893.00;;;19.33;86.76
28606;BME280;46498;49.968;7.754;2023-05-21T20:12:35;-18893.00;;;19.31;87.15
28606;BME280;46498;49.968;7.754;2023-05-21T20:17:36;-18889.00;;;19.21;88.54
28606;BME280;46498;49.968;7.754;2023-05-21T20:22:38;-18886.00;;;19.12;90.03
28606;BME280;46498;49.968;7.754;2023-05-21T20:27:39;-18884.00;;;19.04;91.58
28606;BME280;46498;49.968;7.754;2023-05-21T20:32:41;-18882.00;;;18.98;93.11
28606;BME280;46498;49.968;7.754;2023-05-21T20:37:41;-18881.00;;;18.96;93.65
28606;BME280;46498;49.968;7.754;2023-05-21T20:42:42;-18875.00;;;18.75;96.10
28606;BME280;46498;49.968;7.754;2023-05-21T20:47:44;-18876.00;;;18.78;96.29
28606;BME280;46498;49.968;7.754;2023-05-21T20:52:47;-18871.00;;;18.64;97.72
28606;BME280;46498;49.968;7.754;2023-05-21T20:57:48;-18872.00;;;18.68;98.20
28606;BME280;46498;49.968;7.754;2023-05-21T21:02:49;-18869.00;;;18.58;99.07
28606;BME280;46498;49.968;7.754;2023-05-21T21:07:50;-18868.00;;;18.54;99.41
28606;BME280;46498;49.968;7.754;2023-05-21T21:12:56;-18867.00;;;18.51;100.00
28606;BME280;46498;49.968;7.754;2023-05-21T21:17:56;-18865.00;;;18.44;100.00
28606;BME280;46498;49.968;7.754;2023-05-21T21:22:58;-18865.00;;;18.43;100.00
28606;BME280;46498;49.968;7.754;2023-05-21T21:27:58;-18867.00;;;18.50;100.00
28606;BME280;46498;49.968;7.754;2023-05-21T21:32:59;-18860.00;;;18.30;100.00
28606;BME280;46498;49.968;7.754;2023-05-21T21:38:01;-18860.00;;;18.29;100.00
28606;BME280;46498;49.968;7.754;2023-05-21T21:43:04;-18857.00;;;18.19;100.00
28606;BME280;46498;49.968;7.754;2023-05-21T21:48:05;-18856.00;;;18.16;100.00
28606;BME280;46498;49.968;7.754;2023-05-21T21:53:06;-18854.00;;;18.09;100.00
28606;BME280;46498;49.968;7.754;2023-05-21T21:58:09;-18854.00;;;18.11;100.00
28606;BME280;46498;49.968;7.754;2023-05-21T22:03:10;-18853.00;;;18.07;100.00
28606;BME280;46498;49.968;7.754;2023-05-21T22:08:15;-18853.00;;;18.06;100.00
28606;BME280;46498;49.968;7.754;2023-05-21T22:13:16;-18847.00;;;17.87;100.00
28606;BME280;46498;49.968;7.754;2023-05-21T22:18:17;-18848.00;;;17.91;100.00
28606;BME280;46498;49.968;7.754;2023-05-21T22:23:25;-18842.00;;;17.73;100.00
28606;BME280;46498;49.968;7.754;2023-05-21T22:28:26;-18847.00;;;17.86;100.00
28606;BME280;46498;49.968;7.754;2023-05-21T22:33:27;-18842.00;;;17.73;100.00
28606;BME280;46498;49.968;7.754;2023-05-21T22:38:29;-18838.00;;;17.60;100.00
28606;BME280;46498;49.968;7.754;2023-05-21T22:43:32;-18836.00;;;17.54;100.00
28606;BME280;46498;49.968;7.754;2023-05-21T22:48:33;-18832.00;;;17.41;100.00
28606;BME280;46498;49.968;7.754;2023-05-21T22:53:36;-18831.00;;;17.36;100.00
28606;BME280;46498;49.968;7.754;2023-05-21T22:58:37;-18823.00;;;17.14;100.00
28606;BME280;46498;49.968;7.754;2023-05-21T23:03:38;-18817.00;;;16.94;100.00
28606;BME280;46498;49.968;7.754;2023-05-21T23:08:39;-18816.00;;;16.89;100.00
28606;BME280;46498;49.968;7.754;2023-05-21T23:13:40;-18812.00;;;16.76;100.00
28606;BME280;46498;49.968;7.754;2023-05-21T23:18:41;-18810.00;;;16.70;100.00
28606;BME280;46498;49.968;7.754;2023-05-21T23:23:42;-18811.00;;;16.73;100.00
28606;BME280;46498;49.968;7.754;2023-05-21T23:28:42;-18814.00;;;16.85;100.00
28606;BME280;46498;49.968;7.754;2023-05-21T23:33:43;-18822.00;;;17.09;100.00
28606;BME280;46498;49.968;7.754;2023-05-21T23:38:44;-18821.00;;;17.04;100.00
28606;BME280;46498;49.968;7.754;2023-05-21T23:43:45;-18828.00;;;17.27;100.00
28606;BME280;46498;49.968;7.754;2023-05-21T23:48:46;-18826.00;;;17.21;100.00
28606;BME280;46498;49.968;7.754;2023-05-21T23:53:47;-18825.00;;;17.19;100.00
28606;BME280;46498;49.968;7.754;2023-05-21T23:58:49;-18827.00;;;17.24;100.00
